Aeroporto :
LOGIN :

Iscrizione | Disclaimer

   EN    FR    IT 

 










Sommario :    VFR   VFR Marginale   IFR   IFR Intensivo   IFR Molto Intensivo
Visibilità : 
Base nubi : 
>= 8 km
>= 3000ft
5 / 8 km
1000 / 3000 ft
1500m / 5 km
500 / 1000 ft
800 / 1500m
200 / 500 ft
< 800m
< 200 ft
Simboli :   Temporali  Nebbia  Neve Forte  Precipitazioni Forti  Vento > 20 kt
SIGMETs :   Varie  Temporali  Ghiacco  Turbolenza  Onda orograficha  Ceneri Vulcaniche






- Altitudine del aeroporto : 348 ft
- Codice IATA : STN


EGSS - London Stansted

ULTIMO METAR :
  • 100920Z AUTO 12010KT 9999 NCD 16/08 Q1026

METARs OBSOLETI :
  • 100850Z AUTO 12009KT 9999 NCD 15/08 Q1026
  • 100820Z 12011KT CAVOK 14/08 Q1026
  • 100750Z AUTO 13010KT 9999 NCD 13/08 Q1026
  • 100720Z 12009KT 8000 NSC 11/08 Q1026
  • 100650Z AUTO 11008KT 6000 NCD 10/08 Q1026

TAF TAF EGSS
Valido dal 10 a 06 ore il 11 a 12 ore UTC


100501Z 1006/1112 12008KT 4000 HZ NSC
BECMG 1006/1009 9999 NSW
TEMPO 1021/1109 6000
ATIS : +44 1279 669 325



MetMap, La meteo Aeronautica in un colpo d'occhio ! - Copyright ORBIFLY Dicembre 2007 - Disclaimer

ORBIFLY MET'MAP TEAM :

Programmazione e sviluppo : Alexandra Zaïnal
Concezione : Baudouin d'Aumeries
Aiuto per la programmazione : Marc-Olivier Méhu
Supporto tecnico e logistico : Manuel Goepfert
Aiuto per la traduzione : Arnaldo La Scala

Contatto : metmap@orbifly.com




FONTI E CREDITI :

   NOAA